Pagrindinis puslapis
METAR-TAF:

METAR-TAF

Oro uostai :

Lincoln, Kalifornija, Jungtinės Amerikos Valstijos

platuma: 38-54-33N, ilguma: 121-21-05W, Aukštis: 37 m

Dabartinis oras

Ataskaita buvo paskelbta 12 minutes, ne 06:55 UTC
Vėjas 11 kt iš Pietų/Pietryčių
Temperatūra 16°C
Drėgmė 72%
Slėgis 1012 hPa
Matomumas: 16.1 km
Giedras dangus

METAR: KLHM 270655Z AUTO 15011KT 10SM CLR 16/11 A2989 RMK AO1

Laikas: 00:07 (07:07 UTC)


TAF: trūkstamas

Orai ataskaitas ir orų prognozės (METAR, TAF).

turimą stotys yra geltonos ir raudonos taškus žemėlapyje.

Perkelti pele per norėdami pamatyti stoties vardą.

Tada spustelėkite, norėdami matyti oro stebėjimo ir prognozės.

Norėdami pakeisti žemėlapį: spustelėkite ant žalios mygtukų su juodo kryžiaus žemyn,; žalią mygtuką su brūkšneliu, jei norite nutolinti; arba žalių rodyklių gretimoms žemėlapius.


METAR-TAF: